Birdham, United Kingdom
Current Conditions -  °F | °C
As of 7:50 PM on Friday 19 Dec 2014 (Local Time) from EGKA Reporting Station
Clear Clear  
Wind Chill: 39°   Ceiling: Unl
Heat Index: 39°   Visibility: 6mi
Dew Point: 36°   Wind: 3mph
Humidity: 87%   Direction: 260°W
Pressure: 30.21"   Gusts: NA
Location:  50.8°N, 0.83°W
Report Text: EGKA 191950Z 26003KT CAVOK 04/02 Q1023
Loading
Personal Weather Stations






























Interactive Weather Map New forecast layout! Learn more

10-Day Weather Forecast

Advertisements
Track Severe Weather on mobile